D/T METAR WX W/DIR W/SPE G/SPE TEMP DEWP
19/03/19 03:20 EGPE 190320Z 24006KT 9999 FEW048 07/05 Q1018 WSW (240°) 6.9mph 7°C 5°C
19/03/19 02:50 EGPE 190250Z 23009KT 9999 NSC 07/05 Q1018 SW (230°) 10.4mph 7°C 5°C
19/03/19 02:20 EGPE 190220Z 20006KT 9999 FEW030 06/04 Q1018 SSW (200°) 6.9mph 6°C 4°C
19/03/19 01:50 EGPE 190150Z AUTO 21007KT 9999 NCD 06/04 Q1018 SSW (210°) 8.1mph 6°C 4°C
19/03/19 01:20 EGPE 190120Z AUTO 21011KT 9999 FEW033/// 06/04 Q1019 SSW (210°) 12.7mph 6°C 4°C
19/03/19 00:50 EGPE 190050Z AUTO 22010KT 9999 NCD 05/04 Q1019 SW (220°) 11.5mph 5°C 4°C
19/03/19 00:20 EGPE 190020Z AUTO 21009KT 9999 FEW035/// 05/04 Q1018 SSW (210°) 10.4mph 5°C 4°C
18/03/19 23:50 EGPE 182350Z AUTO 22008KT 9999 NCD 05/04 Q1019 SW (220°) 9.2mph 5°C 4°C
18/03/19 23:20 EGPE 182320Z AUTO 20006KT 9999 SCT032/// 05/04 Q1019 SSW (200°) 6.9mph 5°C 4°C
18/03/19 22:50 EGPE 182250Z AUTO 21006KT 9999 BKN031/// OVC037/// 06/04 Q1019 SSW (210°) 6.9mph 6°C 4°C
18/03/19 22:20 EGPE 182220Z AUTO 22007KT 9999 BKN032/// 06/04 Q1019 SW (220°) 8.1mph 6°C 4°C
18/03/19 21:50 EGPE 182150Z AUTO 21008KT 9999 SCT028/// 06/04 Q1018 SSW (210°) 9.2mph 6°C 4°C
18/03/19 21:20 EGPE 182120Z 22007KT 9999 FEW018 SCT023 06/04 Q1018 SW (220°) 8.1mph 6°C 4°C
18/03/19 20:50 EGPE 182050Z 22007KT 9999 FEW045 04/03 Q1018 SW (220°) 8.1mph 4°C 3°C
18/03/19 20:20 EGPE 182020Z 22008KT 9999 FEW045 04/03 Q1018 SW (220°) 9.2mph 4°C 3°C
18/03/19 19:50 EGPE 181950Z 23007KT 9999 FEW035 05/03 Q1018 SW (230°) 8.1mph 5°C 3°C
18/03/19 19:20 EGPE 181920Z 21008KT 9999 VCSH SCT035 06/04 Q1018 VCSH SSW (210°) 9.2mph 6°C 4°C
18/03/19 18:50 EGPE 181850Z 21007KT 9999 VCSH SCT036 06/04 Q1017 VCSH SSW (210°) 8.1mph 6°C 4°C
18/03/19 18:20 EGPE 181820Z 22008KT 9999 -SHRA FEW030 SCT040 08/04 Q1017 -SHRA SW (220°) 9.2mph 8°C 4°C
18/03/19 17:50 EGPE 181750Z 23010KT 9999 VCSH FEW034 08/04 Q1017 VCSH SW (230°) 11.5mph 8°C 4°C
18/03/19 17:20 EGPE 181720Z 23009KT 9999 FEW034 09/04 Q1016 SW (230°) 10.4mph 9°C 4°C
18/03/19 16:50 EGPE 181650Z 22008KT 9999 FEW035 10/04 Q1016 SW (220°) 9.2mph 10°C 4°C
18/03/19 16:20 EGPE 181620Z 22008KT 9999 SCT035 09/04 Q1016 SW (220°) 9.2mph 9°C 4°C
18/03/19 15:50 EGPE 181550Z 23008KT 9999 FEW025 SCT033 10/04 Q1016 SW (230°) 9.2mph 10°C 4°C
18/03/19 15:20 EGPE 181520Z 23008KT 9999 BKN032 10/04 Q1016 SW (230°) 9.2mph 10°C 4°C
18/03/19 14:50 EGPE 181450Z 21008KT 170V240 9999 SCT037 10/04 Q1015 SSW (210°) 9.2mph 10°C 4°C
18/03/19 14:20 EGPE 181420Z 23008KT 9999 FEW030 10/03 Q1015 SW (230°) 9.2mph 10°C 3°C
18/03/19 13:50 EGPE 181350Z 23009KT 9999 FEW020 SCT030 10/03 Q1015 SW (230°) 10.4mph 10°C 3°C
18/03/19 13:20 EGPE 181320Z 22008KT 9999 FEW020 SCT031 09/03 Q1015 SW (220°) 9.2mph 9°C 3°C
18/03/19 12:50 EGPE 181250Z 23008KT 9999 FEW025 SCT034 09/04 Q1015 SW (230°) 9.2mph 9°C 4°C
18/03/19 12:20 EGPE 181220Z 23006KT 9999 FEW034 08/03 Q1015 SW (230°) 6.9mph 8°C 3°C
18/03/19 11:50 EGPE 181150Z 24006KT 9999 FEW030 08/03 Q1015 WSW (240°) 6.9mph 8°C 3°C
18/03/19 11:20 EGPE 181120Z 25005KT 220V320 9999 FEW032 08/03 Q1015 WSW (250°) 5.8mph 8°C 3°C
18/03/19 10:50 EGPE 181050Z 20008KT 170V230 9999 FEW032 08/03 Q1015 SSW (200°) 9.2mph 8°C 3°C
18/03/19 10:20 EGPE 181020Z 24006KT 200V270 9999 FEW034 07/03 Q1015 WSW (240°) 6.9mph 7°C 3°C
18/03/19 09:50 EGPE 180950Z 22005KT 9999 FEW032 06/02 Q1014 SW (220°) 5.8mph 6°C 2°C
18/03/19 09:20 EGPE 180920Z 24006KT 9999 FEW030 06/02 Q1014 WSW (240°) 6.9mph 6°C 2°C
18/03/19 08:50 EGPE 180850Z 24005KT 9999 FEW030 05/02 Q1014 WSW (240°) 5.8mph 5°C 2°C
18/03/19 08:20 EGPE 180820Z 23005KT 9999 FEW034 03/01 Q1014 SW (230°) 5.8mph 3°C 1°C
18/03/19 07:50 EGPE 180750Z 24002KT 9999 FEW034 00/M01 Q1013 WSW (240°) 2.3mph 0°C -1°C
18/03/19 07:20 EGPE 180720Z VRB01KT 9999 FEW034 M00/M01 Q1013 N (0°) 1.2mph 0°C -1°C
18/03/19 06:50 EGPE 180650Z 23006KT 9999 FEW032 M01/M02 Q1013 SW (230°) 6.9mph -1°C -2°C
18/03/19 06:20 EGPE 180620Z 21006KT 9999 FEW032 M00/M01 Q1013 SSW (210°) 6.9mph 0°C -1°C
18/03/19 05:50 EGPE 180550Z 22005KT 9999 FEW032 M00/M01 Q1013 SW (220°) 5.8mph 0°C -1°C
18/03/19 05:20 EGPE 180520Z AUTO 23004KT 9999 NCD M00/M02 Q1013 SW (230°) 4.6mph 0°C -2°C
18/03/19 04:50 EGPE 180450Z AUTO 23007KT 9999 NCD M00/M02 Q1013 SW (230°) 8.1mph 0°C -2°C
18/03/19 04:20 EGPE 180420Z AUTO 21008KT 9999 NCD M01/M02 Q1013 SSW (210°) 9.2mph -1°C -2°C
18/03/19 03:50 EGPE 180350Z AUTO 22007KT 9999 NCD M00/M02 Q1013 SW (220°) 8.1mph 0°C -2°C
18/03/19 03:20 EGPE 180320Z AUTO 23007KT 9999 NCD M01/M03 Q1013 SW (230°) 8.1mph -1°C -3°C
18/03/19 02:50 EGPE 180250Z AUTO 22007KT 9999 NCD M01/M03 Q1013 SW (220°) 8.1mph -1°C -3°C
18/03/19 02:20 EGPE 180220Z AUTO 22009KT 9999 NCD M01/M02 Q1013 SW (220°) 10.4mph -1°C -2°C
18/03/19 01:50 EGPE 180150Z AUTO 21006KT 9999 NCD M01/M03 Q1012 SSW (210°) 6.9mph -1°C -3°C
18/03/19 01:20 EGPE 180120Z AUTO 20004KT 9999 FEW049/// 01/M02 Q1012 SSW (200°) 4.6mph 1°C -2°C
18/03/19 00:50 EGPE 180050Z AUTO 22006KT 9999 OVC046/// 01/M01 Q1012 SW (220°) 6.9mph 1°C -1°C
18/03/19 00:20 EGPE 180020Z AUTO 22008KT 9999 NCD 01/M02 Q1012 SW (220°) 9.2mph 1°C -2°C
17/03/19 23:50 EGPE 172350Z AUTO 20005KT 9999 NCD 01/M02 Q1012 SSW (200°) 5.8mph 1°C -2°C
17/03/19 23:20 EGPE 172320Z AUTO 19005KT 9999 NCD 01/M01 Q1011 S (190°) 5.8mph 1°C -1°C
17/03/19 22:50 EGPE 172250Z AUTO 24006KT 9999 NCD 02/M01 Q1011 WSW (240°) 6.9mph 2°C -1°C
17/03/19 22:20 EGPE 172220Z AUTO 27009KT 9999 NCD 03/00 Q1011 W (270°) 10.4mph 3°C 0°C
17/03/19 21:50 EGPE 172150Z AUTO 25005KT 9999 NCD 02/M00 Q1011 WSW (250°) 5.8mph 2°C 0°C
17/03/19 21:20 EGPE 172120Z AUTO 26007KT 9999 NCD 03/00 Q1010 W (260°) 8.1mph 3°C 0°C
17/03/19 20:50 EGPE 172050Z 28010KT 9999 FEW030 04/00 Q1010 W (280°) 11.5mph 4°C 0°C
17/03/19 20:20 EGPE 172020Z 28011KT 9999 FEW030 04/00 Q1010 W (280°) 12.7mph 4°C 0°C
17/03/19 19:50 EGPE 171950Z 27009KT 9999 VCSH FEW020CB FEW040 04/M00 Q1009 VCSH W (270°) 10.4mph 4°C 0°C
17/03/19 19:20 EGPE 171920Z 24008KT 9999 VCSH FEW020CB FEW040 04/M00 Q1009 VCSH WSW (240°) 9.2mph 4°C 0°C
17/03/19 18:50 EGPE 171850Z 26009KT 9999 VCSH FEW020CB SCT040 05/00 Q1008 VCSH W (260°) 10.4mph 5°C 0°C
17/03/19 18:20 EGPE 171820Z 29005KT 9999 VCSH FEW020CB SCT040 05/01 Q1007 VCSH WNW (290°) 5.8mph 5°C 1°C
17/03/19 17:50 EGPE 171750Z 31009KT 9999 VCSH FEW020CB SCT027 05/01 Q1007 VCSH NW (310°) 10.4mph 5°C 1°C
17/03/19 17:20 EGPE 171720Z 32008KT 290V360 9999 VCSH FEW018CB SCT030 06/01 Q1006 VCSH NW (320°) 9.2mph 6°C 1°C
17/03/19 16:50 EGPE 171650Z 30010KT 260V340 9999 VCSH FEW018CB SCT030 07/01 Q1006 VCSH WNW (300°) 11.5mph 7°C 1°C
17/03/19 15:50 EGPE 171550Z 30010KT 9999 VCSH FEW018CB SCT032 06/01 Q1004 VCSH WNW (300°) 11.5mph 6°C 1°C
17/03/19 15:20 EGPE 171520Z 33019KT 9999 -SHRA FEW014CB SCT030 05/01 Q1003 -SHRA NNW (330°) 21.9mph 5°C 1°C
17/03/19 14:50 EGPE 171450Z 27009KT 9999 VCSH FEW014CB FEW040 07/02 Q1003 VCSH W (270°) 10.4mph 7°C 2°C
17/03/19 14:20 EGPE 171420Z 31015KT 9999 VCSH FEW010 FEW018CB SCT028 06/02 Q1002 VCSH NW (310°) 17.3mph 6°C 2°C
17/03/19 13:50 EGPE 171350Z 32015KT 9999 VCSH FEW008 FEW014CB SCT028 06/02 Q1002 VCSH NW (320°) 17.3mph 6°C 2°C
17/03/19 13:20 EGPE 171320Z 31013KT 9999 VCSH FEW008 FEW014CB SCT028 06/03 Q1001 VCSH NW (310°) 15.0mph 6°C 3°C
17/03/19 12:50 EGPE 171250Z 31010KT 270V350 9999 6000NW VCSH FEW006 FEW014CB SCT028 06/03 Q1000 VCSH NW (310°) 11.5mph 6°C 3°C
17/03/19 12:20 EGPE 171220Z 29009KT 9999 VCSH FEW006 FEW014CB SCT027 05/03 Q0999 RESHRA VCSH WNW (290°) 10.4mph 5°C 3°C
17/03/19 11:50 EGPE 171150Z 28008KT 240V320 9999 7000NW VCSH FEW008 SCT014CB BKN027 07/04 Q0998 VCSH W (280°) 9.2mph 7°C 4°C
17/03/19 11:20 EGPE 171120Z 28006KT 9999 FEW010 FEW015CB SCT025 05/03 Q0997 W (280°) 6.9mph 5°C 3°C
17/03/19 10:50 EGPE 171050Z 29007KT 260V330 9999 9000S -SHRA FEW008 FEW015CB SCT020 05/03 Q0996 RESHRA -SHRA WNW (290°) 8.1mph 5°C 3°C
17/03/19 10:20 EGPE 171020Z 28009KT 250V320 9999 FEW008 FEW015CB SCT025 05/03 Q0995 RESHRA W (280°) 10.4mph 5°C 3°C
17/03/19 09:50 EGPE 170950Z 26011KT 9999 -SHRA FEW008 BKN022 05/03 Q0994 -SHRA W (260°) 12.7mph 5°C 3°C
17/03/19 09:20 EGPE 170920Z 22014KT 9999 FEW015 BKN026 05/02 Q0993 SW (220°) 16.1mph 5°C 2°C
17/03/19 08:20 EGPE 170820Z 23014KT 9999 FEW018CB SCT034 05/03 Q0992 SW (230°) 16.1mph 5°C 3°C
17/03/19 07:50 EGPE 170750Z 24012KT 9999 FEW018CB SCT042 03/02 Q0992 WSW (240°) 13.8mph 3°C 2°C
17/03/19 06:50 EGPE 170650Z 23013KT 9999 -SHRA FEW010 FEW020CB SCT032 03/02 Q0991 -SHRA SW (230°) 15.0mph 3°C 2°C
17/03/19 06:20 EGPE 170620Z 23015KT 9999 -SHRA FEW015 BKN041 03/01 Q0990 -SHRA SW (230°) 17.3mph 3°C 1°C
17/03/19 05:20 EGPE 170520Z AUTO 25013KT 9999 FEW019/// BKN039/// 03/01 Q0989 WSW (250°) 15.0mph 3°C 1°C
17/03/19 04:50 EGPE 170450Z AUTO 24016KT 9999 FEW012/// SCT019/// BKN030/// 04/01 Q0989 WSW (240°) 18.4mph 4°C 1°C
17/03/19 04:20 EGPE 170420Z AUTO 24015KT 9999 FEW018/// SCT023/// BKN029/// 03/01 Q0988 WSW (240°) 17.3mph 3°C 1°C
17/03/19 03:50 EGPE 170350Z AUTO 24015KT 9999 FEW011/// BKN028/// 03/01 Q0988 WSW (240°) 17.3mph 3°C 1°C
17/03/19 03:20 EGPE 170320Z AUTO 24015KT 9999 NCD 03/01 Q0988 WSW (240°) 17.3mph 3°C 1°C
17/03/19 02:50 EGPE 170250Z AUTO 23016KT 9999 FEW017/// 03/01 Q0988 SW (230°) 18.4mph 3°C 1°C
17/03/19 02:20 EGPE 170220Z AUTO 24015KT 9999 -RA FEW016/// SCT027/// BKN043/// 03/01 Q0988 -RA WSW (240°) 17.3mph 3°C 1°C
17/03/19 01:50 EGPE 170150Z AUTO 23015KT 9999 FEW044/// 03/01 Q0987 SW (230°) 17.3mph 3°C 1°C
17/03/19 01:20 EGPE 170120Z AUTO 24015KT 9999 FEW020/// 03/00 Q0987 WSW (240°) 17.3mph 3°C 0°C
17/03/19 00:50 EGPE 170050Z AUTO 25015KT 9999 SCT025/// BKN041/// 03/01 Q0987 WSW (250°) 17.3mph 3°C 1°C
16/03/19 23:50 EGPE 162350Z AUTO 23010KT 9999 NCD 02/01 Q0987 SW (230°) 11.5mph 2°C 1°C
16/03/19 23:20 EGPE 162320Z AUTO 24014KT 9999 FEW031/// 03/01 Q0987 WSW (240°) 16.1mph 3°C 1°C
16/03/19 22:50 EGPE 162250Z AUTO 24015KT 9999 FEW044/// 03/01 Q0987 WSW (240°) 17.3mph 3°C 1°C
16/03/19 22:20 EGPE 162220Z AUTO 24015KT 9999 NCD 03/01 Q0987 WSW (240°) 17.3mph 3°C 1°C
16/03/19 21:50 EGPE 162150Z AUTO 24013KT 9999 FEW015/// SCT047/// 02/01 Q0986 WSW (240°) 15.0mph 2°C 1°C
16/03/19 21:20 EGPE 162120Z 24013KT 9999 -RA FEW015 SCT030 03/01 Q0986 -RA WSW (240°) 15.0mph 3°C 1°C
16/03/19 20:50 EGPE 162050Z 24010KT 9999 SCT040 03/01 Q0986 WSW (240°) 11.5mph 3°C 1°C
16/03/19 20:20 EGPE 162020Z 23008KT 9999 BKN025 02/01 Q0986 SW (230°) 9.2mph 2°C 1°C
16/03/19 19:50 EGPE 161950Z 23008KT 9999 SCT012 BKN025 02/02 Q0986 SW (230°) 9.2mph 2°C 2°C
16/03/19 19:20 EGPE 161920Z 24006KT 9999 -RA FEW009 SCT012 BKN020 02/01 Q0986 -RA WSW (240°) 6.9mph 2°C 1°C
16/03/19 18:50 EGPE 161850Z 26007KT 9999 -RA FEW008 SCT012 BKN017 02/01 Q0986 -RA W (260°) 8.1mph 2°C 1°C
16/03/19 18:20 EGPE 161820Z 28005KT 9999 -RA FEW008 SCT012 BKN017 02/01 Q0985 -RA W (280°) 5.8mph 2°C 1°C
16/03/19 17:50 EGPE 161750Z 30005KT 9999 -RA SCT008 BKN014 02/01 Q0985 -RA WNW (300°) 5.8mph 2°C 1°C
16/03/19 17:20 EGPE 161720Z 31007KT 7000 -RA SCT008 BKN012 02/01 Q0985 -RA NW (310°) 8.1mph 2°C 1°C
16/03/19 16:50 EGPE 161650Z 33007KT 7000 -RASN SCT006 BKN011 02/01 Q0985 -RA -SN NNW (330°) 8.1mph 2°C 1°C
16/03/19 16:20 EGPE 161620Z 35008KT 7000 -RASN SCT006 BKN011 02/01 Q0985 -RA -SN N (350°) 9.2mph 2°C 1°C
16/03/19 15:50 EGPE 161550Z 02006KT 7000 -RASN SCT006 BKN011 02/01 Q0985 -RA -SN NNE (20°) 6.9mph 2°C 1°C
16/03/19 15:20 EGPE 161520Z 03008KT 7000 -RADZ SCT007 BKN011 02/02 Q0985 -RA -DZ NNE (30°) 9.2mph 2°C 2°C
16/03/19 14:50 EGPE 161450Z 04009KT 9999 -RADZ SCT007 BKN012 02/02 Q0985 -RA -DZ NE (40°) 10.4mph 2°C 2°C
16/03/19 14:20 EGPE 161420Z 03010KT 350V050 9999 -RADZ SCT007 BKN012 02/02 Q0985 -RA -DZ NNE (30°) 11.5mph 2°C 2°C
16/03/19 13:50 EGPE 161350Z 04010KT 9999 -RADZ FEW008 SCT009 BKN012 03/02 Q0986 -RA -DZ NE (40°) 11.5mph 3°C 2°C
16/03/19 13:20 EGPE 161320Z 04009KT 9999 -RADZ FEW005 SCT007 BKN012 03/02 Q0986 -RA -DZ NE (40°) 10.4mph 3°C 2°C
16/03/19 12:50 EGPE 161250Z 04007KT 8000 -RADZ FEW003 SCT007 BKN012 03/02 Q0987 -RA -DZ NE (40°) 8.1mph 3°C 2°C
16/03/19 12:20 EGPE 161220Z 04007KT 7000 -RADZ FEW003 SCT007 BKN013 03/02 Q0987 -RA -DZ NE (40°) 8.1mph 3°C 2°C
16/03/19 11:50 EGPE 161150Z 04007KT 7000 -RADZ FEW003 SCT008 BKN014 03/01 Q0988 -RA -DZ NE (40°) 8.1mph 3°C 1°C
16/03/19 11:20 EGPE 161120Z 04005KT 8000 -RADZ FEW004 SCT010 BKN023 03/02 Q0989 -RA -DZ NE (40°) 5.8mph 3°C 2°C
16/03/19 10:50 EGPE 161050Z 04005KT 7000 -RADZ FEW004 SCT011 BKN028 03/02 Q0989 -RA -DZ NE (40°) 5.8mph 3°C 2°C
16/03/19 10:20 EGPE 161020Z 05004KT 9999 5000S -DZ FEW004 SCT016 BKN030 02/01 Q0989 -DZ NE (50°) 4.6mph 2°C 1°C
16/03/19 09:50 EGPE 160950Z 08004KT 6000 -RASN FEW005 BKN017 02/01 Q0990 -RA -SN E (80°) 4.6mph 2°C 1°C
16/03/19 09:20 EGPE 160920Z 10004KT 6000 -RASN FEW010 BKN018 02/01 Q0991 -RA -SN E (100°) 4.6mph 2°C 1°C
16/03/19 08:50 EGPE 160850Z VRB02KT 7000 -RADZ FEW010 BKN021 03/01 Q0991 -RA -DZ N (0°) 2.3mph 3°C 1°C
16/03/19 08:20 EGPE 160820Z 14004KT 8000 -RADZ FEW010 BKN024 03/01 Q0992 -RA -DZ SE (140°) 4.6mph 3°C 1°C
16/03/19 07:50 EGPE 160750Z 00000KT 9999 8000W -SHRA FEW017 BKN028 03/01 Q0992 -SHRA N (0°) 3°C 1°C
16/03/19 07:20 EGPE 160720Z 00000KT 9999 FEW018 BKN037 03/01 Q0992 N (0°) 3°C 1°C
16/03/19 06:50 EGPE 160650Z VRB01KT 9999 FEW020 BKN043 02/01 Q0992 N (0°) 1.2mph 2°C 1°C
16/03/19 06:20 EGPE 160620Z 23003KT 9999 FEW025 SCT048 02/01 Q0993 SW (230°) 3.5mph 2°C 1°C
16/03/19 05:50 EGPE 160550Z VRB01KT 9999 SCT048 02/01 Q0993 N (0°) 1.2mph 2°C 1°C
16/03/19 05:20 EGPE 160520Z 22004KT CAVOK 02/01 Q0994 SW (220°) 4.6mph 2°C 1°C
16/03/19 04:50 EGPE 160450Z 20004KT CAVOK 02/01 Q0994 SSW (200°) 4.6mph 2°C 1°C
16/03/19 04:20 EGPE 160420Z 21007KT CAVOK 02/01 Q0994 SSW (210°) 8.1mph 2°C 1°C
16/03/19 03:50 EGPE 160350Z 21008KT CAVOK 02/01 Q0995 SSW (210°) 9.2mph 2°C 1°C
16/03/19 03:20 EGPE 160320Z 21007KT CAVOK 02/00 Q0995 SSW (210°) 8.1mph 2°C 0°C
16/03/19 02:50 EGPE 160250Z 21006KT CAVOK 02/M00 Q0996 SSW (210°) 6.9mph 2°C 0°C
16/03/19 02:20 EGPE 160220Z AUTO 22007KT 9999 NCD 02/00 Q0996 SW (220°) 8.1mph 2°C 0°C
16/03/19 01:50 EGPE 160150Z AUTO 21008KT 9999 NCD 03/01 Q0996 SSW (210°) 9.2mph 3°C 1°C
16/03/19 01:20 EGPE 160120Z AUTO 22006KT 9999 FEW043/// 03/01 Q0997 SW (220°) 6.9mph 3°C 1°C